Get Adobe Flash player

РУС

ENG

 
  Pireps - S7
 

Рейс SBIS7 1

  • Выполнял: Andrew Vyunov
  • Аэропорт отправления: Domodedovo Airport (UUDD)
  • Аэропорт назначения: Nizhny Novgorod (UWGG)
  • Тип ВС: A319-112 (VP-BHJ)
  • Время полёта: 01.11
  • Дата полёта: 21.05.2018
  • Маршрут: WT SF1D SF A930 RUSAK A244 MB
  • Статус: Одобрен

Детали полёта
Gross Revenue:
(111 load / $ 220.00 per unit
$ 24, 420.00
Fuel Cost:
(14497 fuel used @ 5.1 / unit)
$ 73, 934.70


Дополнительная информация о полёте:

Лог

Aircraft Used in flight is Airbus A320-214 CFM Sharklets Airbus house color
10:40 Boarding
10:40 Engine 1 Started
10:40 Engine 2 Started
10:40 Brakes are On
10:42 Strobe Lights ON at 600 AGL
10:42 Beacon Lights ON at 600 AGL
10:42 Navigation Lights ON at 600 AGL
10:48 Taxi Lights ON at 600 AGL
10:48 Brakes are Released
10:53Flaps 5 Selected at 600ft and 24kts
10:55 Landing Lights ON at 600 AGL
10:56 You Took off @ 182 Knots and Flaps at Position 5
Departure Weather
UUDD 210730Z 07006MPS 030V100 CAVOK 15/03 Q1027 R88/010095 NOSIGrn
10:56 Landing Gear Up @ 182 Knots and 940 Feet
10:57Flaps 4 Selected at 1550ft and 192kts
10:57 Taxi Lights OFF at 3550 AGL
10:57 Landing Lights OFF at 3660 AGL
10:58Flaps 3 Selected at 4500ft and 195kts
10:58Flaps 2 Selected at 4980ft and 195kts
10:58Flaps Retracted at 5420ft and 197kts
11:00 Below 10000 feet you are not allowed to go over 250 knots
11:41 Taxi Lights ON at 3570 AGL
11:42 Landing Lights ON at 3060 AGL
11:43Flaps 1 Selected at 1770ft and 202kts
11:43Flaps 2 Selected at 1710ft and 202kts
11:43Flaps 5 Selected at 1700ft and 202kts
11:44 Landing Gear Down @ 195 Knots and 1510 Feet
11:45 You Landed @ 161 Knots and with -200 Vertical Speed
Arrival Weather
UWGG 210700Z 06003MPS 350V110 CAVOK 14/02 Q1027 R36L/090070 NOSIGrn
11:46 Taxiing to gate
11:46 Landing Lights OFF at 260 AGL
11:46Flaps Retracted at 260ft and 27kts
11:48 Brakes are On
11:48 Taxi Lights OFF at 260 AGL
11:48 Engine 1 Stoped
11:48 Engine 2 Stoped
Pirep logged with S7 Tracking 1.0.0.13



Общая оценка полета : 100%




Route Map



 
 
   
 
Новости

26.04.2018 - Полеты в X-PLANE

Наш клиент S7 Pad поддерживает полеты как в MFSX, Prepar3d V4, так и в X-PLANE 10 и 11 версиях!
На нашем сайте в разреде загруки есть плагин XPUIPIC for X-plane.
Приятных Вам полетов и мягких посадок!

   
 
Авторизация






Регистрация

Восстановить пароль?

Мы в соц. сетях

      



   
  TeamSpeak3 ts.va-s7.ru


   
 

   
 



   
 


Яндекс.Метрика

www.va-s7.ru 2011-2017
Все права защищены.



Минуточку внимания!
Мы не имеем отношения к торговым маркам "S7" и "Globus" и их представителям.
Эмблемы на сайте являются собственностью соответствующих компаний.

аэронавигационная метеорологическая и любая другая информация с данного ресурса ни в коем случае не должна использоваться для реальных полетов